Time;durP1;ratioP1;P1;durP2;ratioP2;P2;SDS_P1;SDS_P2;PMS_P1;PMS_P2;Temp;Humidity;BMP_temperature;BMP_pressure;BME280_temperature;BME280_humidity;BME280_pressure;Samples;Min_cycle;Max_cycle;Signal;HPM_P1;HPM_P2
2023/04/07 00:01:15;;;;;;;2.43;2.33;;;8.60;96.10;;;;;;4999490;28;20265;-49
2023/04/07 00:03:42;;;;;;;2.03;1.93;;;8.60;96.10;;;;;;4999977;28;20683;-48
2023/04/07 00:06:09;;;;;;;3.70;2.80;;;8.60;96.30;;;;;;4990201;28;20290;-48
2023/04/07 00:08:38;;;;;;;2.63;2.43;;;8.80;96.10;;;;;;4988905;28;20238;-48
2023/04/07 00:11:05;;;;;;;2.90;2.80;;;8.90;95.80;;;;;;4992922;28;20269;-48
2023/04/07 00:13:32;;;;;;;1.90;1.80;;;8.80;96.40;;;;;;4988047;28;20218;-48
2023/04/07 00:15:58;;;;;;;2.47;2.27;;;8.70;96.70;;;;;;4998742;28;20202;-48
2023/04/07 00:18:26;;;;;;;2.03;1.93;;;8.60;97.20;;;;;;4995460;28;20289;-48
2023/04/07 00:20:53;;;;;;;2.53;2.33;;;8.50;97.30;;;;;;4995274;28;20224;-49
2023/04/07 00:23:20;;;;;;;3.10;2.40;;;8.50;97.40;;;;;;4988349;28;20673;-48
2023/04/07 00:25:49;;;;;;;2.43;2.00;;;8.50;97.50;;;;;;4986869;28;20202;-48
2023/04/07 00:28:16;;;;;;;5.23;4.83;;;8.50;97.30;;;;;;4985708;28;20222;-48
2023/04/07 00:30:43;;;;;;;4.87;4.50;;;8.50;97.40;;;;;;4983535;28;20836;-49
2023/04/07 00:33:10;;;;;;;10.03;4.97;;;8.50;97.30;;;;;;4988322;28;20609;-48
2023/04/07 00:35:37;;;;;;;6.50;5.03;;;8.60;97.10;;;;;;4995029;28;20258;-50
2023/04/07 00:38:04;;;;;;;4.80;4.20;;;8.60;97.10;;;;;;4983926;28;20305;-48
2023/04/07 00:40:31;;;;;;;3.63;3.23;;;8.60;97.40;;;;;;5003099;28;20217;-49
2023/04/07 00:42:59;;;;;;;3.60;3.30;;;8.60;97.70;;;;;;4998485;28;20674;-49
2023/04/07 00:45:26;;;;;;;3.43;2.63;;;8.50;98.20;;;;;;4986943;28;20213;-48
2023/04/07 00:47:53;;;;;;;3.47;2.73;;;8.50;98.90;;;;;;4985320;28;20206;-49
2023/04/07 00:50:20;;;;;;;3.53;2.77;;;8.50;99.80;;;;;;4987639;28;20224;-48
2023/04/07 00:52:48;;;;;;;2.80;2.60;;;8.40;99.90;;;;;;4986313;28;20201;-48
2023/04/07 00:55:14;;;;;;;2.90;2.70;;;8.40;99.90;;;;;;4996372;28;20201;-48
2023/04/07 00:57:41;;;;;;;3.17;2.90;;;8.40;99.90;;;;;;4998905;28;20210;-50
2023/04/07 01:00:11;;;;;;;3.80;2.73;;;8.30;99.90;;;;;;4989402;28;20227;-49
2023/04/07 01:02:43;;;;;;;3.23;3.03;;;8.30;99.90;;;;;;4982876;28;20200;-49
2023/04/07 01:05:16;;;;;;;3.40;3.10;;;8.30;99.90;;;;;;4986908;28;20722;-49
2023/04/07 01:07:51;;;;;;;3.67;3.40;;;8.20;99.90;;;;;;4998458;28;20221;-49
2023/04/07 01:10:26;;;;;;;2.90;2.70;;;8.30;99.90;;;;;;4996081;28;20675;-49
2023/04/07 01:13:01;;;;;;;2.53;2.43;;;8.20;99.90;;;;;;4971987;28;20219;-48
2023/04/07 01:15:30;;;;;;;2.83;2.63;;;8.10;99.90;;;;;;4993760;28;20216;-49
2023/04/07 01:18:07;;;;;;;3.90;3.07;;;8.20;99.90;;;;;;4982144;28;20259;-48
2023/04/07 01:20:36;;;;;;;4.13;2.90;;;8.20;99.90;;;;;;5001268;28;20201;-48
2023/04/07 01:23:06;;;;;;;2.90;2.70;;;8.20;99.90;;;;;;4988777;28;20298;-49
2023/04/07 01:25:56;;;;;;;3.27;2.50;;;8.20;99.90;;;;;;4992163;28;20304;-48
2023/04/07 01:28:41;;;;;;;3.47;3.27;;;8.20;99.90;;;;;;4994610;28;20278;-48
2023/04/07 01:31:12;;;;;;;3.40;3.03;;;8.10;99.90;;;;;;5001434;28;20197;-48
2023/04/07 01:33:43;;;;;;;2.43;2.33;;;8.10;99.90;;;;;;4987850;28;20203;-48
2023/04/07 01:36:12;;;;;;;2.57;2.37;;;8.00;99.90;;;;;;4989217;28;20277;-48
2023/04/07 01:38:40;;;;;;;4.80;2.73;;;8.00;99.90;;;;;;4993951;28;20226;-48
2023/04/07 01:41:09;;;;;;;3.63;3.33;;;7.90;99.90;;;;;;4993936;28;20222;-48
2023/04/07 01:43:39;;;;;;;4.30;3.97;;;7.90;99.90;;;;;;4995529;28;20208;-48
2023/04/07 01:46:06;;;;;;;3.63;3.43;;;7.90;99.90;;;;;;4982486;28;20242;-48
2023/04/07 01:48:35;;;;;;;2.73;2.53;;;7.90;99.90;;;;;;4995030;28;20229;-48
2023/04/07 01:51:04;;;;;;;3.63;3.30;;;7.90;99.90;;;;;;4992811;28;20200;-48
2023/04/07 01:53:31;;;;;;;3.10;2.67;;;7.90;99.90;;;;;;4993420;28;20213;-48
2023/04/07 01:55:58;;;;;;;5.33;3.53;;;7.90;99.90;;;;;;4993200;28;20205;-48
2023/04/07 01:58:26;;;;;;;3.73;3.20;;;7.90;99.90;;;;;;4998829;28;20229;-48
2023/04/07 02:00:53;;;;;;;3.97;3.00;;;7.90;99.90;;;;;;4992739;28;20304;-48
2023/04/07 02:03:23;;;;;;;3.17;2.87;;;7.80;99.90;;;;;;4991953;28;20263;-48
2023/04/07 02:05:55;;;;;;;3.93;3.00;;;7.80;99.90;;;;;;4993951;28;20339;-48
2023/04/07 02:08:26;;;;;;;3.27;2.83;;;7.80;99.90;;;;;;4985635;28;20224;-49
2023/04/07 02:10:56;;;;;;;2.77;2.60;;;7.80;99.90;;;;;;4993323;28;20198;-48
2023/04/07 02:13:24;;;;;;;2.57;2.37;;;7.80;99.90;;;;;;4999791;28;20209;-48
2023/04/07 02:15:53;;;;;;;3.43;2.87;;;7.80;99.90;;;;;;4997128;28;20198;-48
2023/04/07 02:18:21;;;;;;;2.60;2.40;;;7.80;99.90;;;;;;4989573;28;20273;-49
2023/04/07 02:20:48;;;;;;;2.80;2.70;;;7.80;99.90;;;;;;5005277;28;20207;-48
2023/04/07 02:23:17;;;;;;;3.07;2.77;;;7.80;99.90;;;;;;4992357;28;20563;-49
2023/04/07 02:25:44;;;;;;;2.93;2.83;;;7.80;99.90;;;;;;4989899;28;20210;-48
2023/04/07 02:28:11;;;;;;;2.63;2.43;;;7.80;99.90;;;;;;4989425;28;20783;-48
2023/04/07 02:30:38;;;;;;;3.30;2.87;;;7.80;99.90;;;;;;4988571;28;20252;-48
2023/04/07 02:33:04;;;;;;;2.67;2.57;;;7.80;99.90;;;;;;4984383;28;20201;-48
2023/04/07 02:35:31;;;;;;;2.93;2.73;;;7.90;99.90;;;;;;4985141;28;20280;-49
2023/04/07 02:37:58;;;;;;;4.23;3.20;;;7.80;99.90;;;;;;4999542;28;20204;-48
2023/04/07 02:40:27;;;;;;;5.23;4.13;;;7.90;99.90;;;;;;4981363;28;20288;-48
2023/04/07 02:42:54;;;;;;;3.13;2.93;;;7.80;99.90;;;;;;4989951;28;20289;-48
2023/04/07 02:45:21;;;;;;;2.93;2.57;;;7.80;99.90;;;;;;4993653;28;20292;-48
2023/04/07 02:47:48;;;;;;;3.27;2.97;;;7.80;99.90;;;;;;4990682;28;20276;-48
2023/04/07 02:50:15;;;;;;;2.73;2.57;;;7.70;99.90;;;;;;4990408;28;20207;-48
2023/04/07 02:52:42;;;;;;;5.60;2.90;;;7.70;99.90;;;;;;5004991;28;20197;-48
2023/04/07 02:55:10;;;;;;;3.40;3.10;;;7.70;99.90;;;;;;4994902;28;20197;-49
2023/04/07 02:57:41;;;;;;;3.40;3.10;;;7.70;99.90;;;;;;4987141;28;20226;-49
2023/04/07 03:00:09;;;;;;;3.70;3.40;;;7.60;99.90;;;;;;4993433;28;20281;-48
2023/04/07 03:02:38;;;;;;;4.70;4.20;;;7.70;99.90;;;;;;4995797;28;20704;-48
2023/04/07 03:05:06;;;;;;;3.70;3.40;;;7.60;99.90;;;;;;5006467;28;20209;-48
2023/04/07 03:07:33;;;;;;;4.13;3.83;;;7.60;99.90;;;;;;5003168;28;20206;-48
2023/04/07 03:10:00;;;;;;;4.10;3.90;;;7.60;99.90;;;;;;4998576;28;20225;-48
2023/04/07 03:12:27;;;;;;;3.97;3.57;;;7.60;99.90;;;;;;5010084;28;20215;-48
2023/04/07 03:14:55;;;;;;;4.00;3.70;;;7.60;99.90;;;;;;4984981;28;20272;-49
2023/04/07 03:17:22;;;;;;;4.60;4.20;;;7.50;99.90;;;;;;5001074;28;20195;-48
2023/04/07 03:19:50;;;;;;;4.07;3.77;;;7.50;99.90;;;;;;4988038;28;20230;-48
2023/04/07 03:22:17;;;;;;;3.43;3.20;;;7.50;99.90;;;;;;4988985;28;20236;-48
2023/04/07 03:24:44;;;;;;;4.37;3.67;;;7.50;99.90;;;;;;4997022;28;20203;-48
2023/04/07 03:27:11;;;;;;;3.40;3.20;;;7.40;99.90;;;;;;4997320;28;20586;-48
2023/04/07 03:29:38;;;;;;;3.30;2.80;;;7.50;99.90;;;;;;4980732;28;20226;-49
2023/04/07 03:32:07;;;;;;;3.43;3.27;;;7.50;99.90;;;;;;4990063;28;20244;-48
2023/04/07 03:34:34;;;;;;;3.47;3.23;;;7.40;99.90;;;;;;4985959;28;20202;-48
2023/04/07 03:37:01;;;;;;;3.97;3.47;;;7.40;99.90;;;;;;4985467;28;20252;-48
2023/04/07 03:39:28;;;;;;;3.20;3.00;;;7.40;99.90;;;;;;4994730;28;20231;-48
2023/04/07 03:41:55;;;;;;;3.27;3.07;;;7.40;99.90;;;;;;5003975;28;20212;-48
2023/04/07 03:44:22;;;;;;;3.70;3.50;;;7.40;99.90;;;;;;4993930;28;20236;-48
2023/04/07 03:46:49;;;;;;;5.67;3.10;;;7.40;99.90;;;;;;4984717;28;20777;-48
2023/04/07 03:49:18;;;;;;;5.63;4.17;;;7.40;99.90;;;;;;4983774;28;20256;-48
2023/04/07 03:51:45;;;;;;;4.93;3.73;;;7.40;99.90;;;;;;4990688;28;20205;-48
2023/04/07 03:54:11;;;;;;;4.40;3.63;;;7.40;99.90;;;;;;4991216;28;20642;-49
2023/04/07 03:56:39;;;;;;;3.07;2.87;;;7.40;99.90;;;;;;4992213;28;20267;-48
2023/04/07 03:59:06;;;;;;;4.37;3.83;;;7.40;99.90;;;;;;4988908;28;20587;-48
2023/04/07 04:01:33;;;;;;;3.60;3.30;;;7.40;99.90;;;;;;4984950;28;20227;-48
2023/04/07 04:04:00;;;;;;;4.30;4.00;;;7.40;99.90;;;;;;4997533;28;20197;-48
2023/04/07 04:06:28;;;;;;;3.43;2.97;;;7.40;99.90;;;;;;4994667;28;20263;-48
2023/04/07 04:08:55;;;;;;;4.33;3.93;;;7.50;99.90;;;;;;4990757;28;20223;-48
2023/04/07 04:11:22;;;;;;;3.47;3.27;;;7.40;99.90;;;;;;4996005;28;20688;-48
2023/04/07 04:13:49;;;;;;;3.77;2.93;;;7.50;99.90;;;;;;5000127;28;20664;-48
2023/04/07 04:16:16;;;;;;;4.40;3.73;;;7.50;99.90;;;;;;4975270;28;20236;-48
2023/04/07 04:18:43;;;;;;;4.33;4.03;;;7.50;99.90;;;;;;5001427;28;20236;-48
2023/04/07 04:21:10;;;;;;;5.30;4.37;;;7.50;99.90;;;;;;4992467;28;20251;-48
2023/04/07 04:23:38;;;;;;;8.03;4.07;;;7.40;99.90;;;;;;5010232;28;20685;-48
2023/04/07 04:26:05;;;;;;;3.87;3.57;;;7.40;99.90;;;;;;4999413;28;20201;-48
2023/04/07 04:28:32;;;;;;;4.40;4.00;;;7.30;99.90;;;;;;5007677;28;20217;-48
2023/04/07 04:30:59;;;;;;;4.80;3.63;;;7.30;99.90;;;;;;4996079;28;20634;-48
2023/04/07 04:33:26;;;;;;;4.50;3.93;;;7.30;99.90;;;;;;4999702;28;20201;-48
2023/04/07 04:35:53;;;;;;;3.60;3.40;;;7.20;99.90;;;;;;4994321;28;20254;-48
2023/04/07 04:38:20;;;;;;;5.37;4.10;;;7.20;99.90;;;;;;5006239;28;20271;-48
2023/04/07 04:40:48;;;;;;;3.83;3.63;;;7.20;99.90;;;;;;4996990;28;20271;-48
2023/04/07 04:43:15;;;;;;;3.70;3.40;;;7.20;99.90;;;;;;4983155;28;20693;-48
2023/04/07 04:45:42;;;;;;;3.30;3.10;;;7.10;99.90;;;;;;4980325;28;20209;-48
2023/04/07 04:48:09;;;;;;;4.80;3.20;;;7.00;99.90;;;;;;4978358;28;20214;-48
2023/04/07 04:50:37;;;;;;;3.93;3.67;;;7.00;99.90;;;;;;4977135;28;20571;-48
2023/04/07 04:53:04;;;;;;;3.40;3.20;;;7.00;99.90;;;;;;4974803;28;20666;-48
2023/04/07 04:55:31;;;;;;;4.23;3.83;;;6.90;99.90;;;;;;4983197;28;20206;-47
2023/04/07 04:57:59;;;;;;;3.40;3.20;;;6.90;99.90;;;;;;4994651;28;20217;-48
2023/04/07 05:00:26;;;;;;;3.53;3.23;;;6.90;99.90;;;;;;4975249;28;20280;-48
2023/04/07 05:02:53;;;;;;;4.20;3.60;;;7.00;99.90;;;;;;4984622;28;20727;-48
2023/04/07 05:05:20;;;;;;;4.10;3.77;;;7.00;99.90;;;;;;4992654;28;20579;-48
2023/04/07 05:07:47;;;;;;;3.97;3.60;;;7.00;99.90;;;;;;4978236;28;20289;-48
2023/04/07 05:10:14;;;;;;;6.07;4.63;;;7.00;99.90;;;;;;4975393;28;20194;-48
2023/04/07 05:12:41;;;;;;;4.23;3.87;;;7.10;99.90;;;;;;4986987;28;20203;-48
2023/04/07 05:15:11;;;;;;;5.33;4.83;;;7.10;99.90;;;;;;4987282;28;20271;-48
2023/04/07 05:17:41;;;;;;;5.67;5.00;;;7.20;99.90;;;;;;4976638;28;20212;-48
2023/04/07 05:20:10;;;;;;;4.97;4.20;;;7.20;99.90;;;;;;4980502;28;20276;-48
2023/04/07 05:22:38;;;;;;;5.63;4.60;;;7.00;99.90;;;;;;4975605;28;20301;-48
2023/04/07 05:25:05;;;;;;;6.57;4.07;;;7.10;99.90;;;;;;4975053;28;20214;-48
2023/04/07 05:27:35;;;;;;;4.80;4.23;;;7.10;99.90;;;;;;4980231;28;20213;-48
2023/04/07 05:30:02;;;;;;;4.40;4.07;;;7.20;99.90;;;;;;4987120;28;20220;-48
2023/04/07 05:32:31;;;;;;;5.17;4.57;;;7.30;99.90;;;;;;4974561;28;20204;-48
2023/04/07 05:34:58;;;;;;;5.70;5.03;;;7.40;99.90;;;;;;4992934;28;20235;-48
2023/04/07 05:37:25;;;;;;;5.27;4.87;;;7.40;99.90;;;;;;4984144;28;20206;-48
2023/04/07 05:39:52;;;;;;;9.77;6.40;;;7.50;99.90;;;;;;4994293;28;20271;-48
2023/04/07 05:42:18;;;;;;;5.13;3.90;;;7.50;99.90;;;;;;4983028;28;20218;-48
2023/04/07 05:44:45;;;;;;;4.70;4.00;;;7.50;99.90;;;;;;4978395;28;20199;-48
2023/04/07 05:47:12;;;;;;;3.90;3.67;;;7.60;99.90;;;;;;4983121;28;20638;-48
2023/04/07 05:49:44;;;;;;;4.83;4.50;;;7.60;99.90;;;;;;4989918;28;20291;-48
2023/04/07 05:52:11;;;;;;;5.53;5.03;;;7.60;99.90;;;;;;4978668;28;20205;-48
2023/04/07 05:54:40;;;;;;;4.80;4.47;;;7.70;99.90;;;;;;4983377;28;20456;-48
2023/04/07 05:57:07;;;;;;;3.87;3.57;;;7.70;99.90;;;;;;4982677;28;20232;-48
2023/04/07 05:59:35;;;;;;;6.43;5.90;;;7.80;99.90;;;;;;4973717;28;20299;-48
2023/04/07 06:02:02;;;;;;;6.43;4.60;;;7.80;99.90;;;;;;4974032;28;20202;-48
2023/04/07 06:04:29;;;;;;;6.90;4.90;;;7.90;99.90;;;;;;4974551;28;20235;-48
2023/04/07 06:06:58;;;;;;;5.63;5.07;;;8.00;99.90;;;;;;4981601;28;20205;-50
2023/04/07 06:09:25;;;;;;;3.73;3.43;;;8.20;99.90;;;;;;4984738;28;20281;-49
2023/04/07 06:11:52;;;;;;;5.70;5.03;;;8.30;99.90;;;;;;4977960;28;20209;-48
2023/04/07 06:14:19;;;;;;;4.47;4.17;;;8.30;99.90;;;;;;4983712;28;20256;-48
2023/04/07 06:16:46;;;;;;;3.07;2.87;;;8.40;99.90;;;;;;4981105;28;20207;-48
2023/04/07 06:19:13;;;;;;;4.00;3.70;;;8.40;99.90;;;;;;4988791;28;20792;-49
2023/04/07 06:21:40;;;;;;;3.47;3.23;;;8.40;99.90;;;;;;4987968;28;20242;-49
2023/04/07 06:24:09;;;;;;;3.77;3.50;;;8.40;99.90;;;;;;4992516;28;20243;-49
2023/04/07 06:26:36;;;;;;;3.23;2.97;;;8.40;99.90;;;;;;4987575;28;20212;-49
2023/04/07 06:29:03;;;;;;;3.53;3.23;;;8.30;99.90;;;;;;4986538;28;20276;-49
2023/04/07 06:31:30;;;;;;;3.97;3.60;;;8.40;99.90;;;;;;4994018;28;20207;-49
2023/04/07 06:33:58;;;;;;;2.90;2.70;;;8.40;99.90;;;;;;4984565;28;20196;-49
2023/04/07 06:36:26;;;;;;;3.37;3.20;;;8.40;99.90;;;;;;4993583;28;20277;-48
2023/04/07 06:38:53;;;;;;;3.93;3.53;;;8.50;99.90;;;;;;4995108;28;20287;-49
2023/04/07 06:41:21;;;;;;;3.70;3.37;;;8.50;99.90;;;;;;4987231;28;20225;-48
2023/04/07 06:43:51;;;;;;;3.93;3.57;;;8.50;99.90;;;;;;4993226;28;20810;-49
2023/04/07 06:46:18;;;;;;;4.30;4.00;;;8.60;99.90;;;;;;4983944;28;20304;-49
2023/04/07 06:48:46;;;;;;;4.67;4.10;;;8.70;99.90;;;;;;4984426;28;20220;-48
2023/04/07 06:51:14;;;;;;;5.47;5.07;;;8.80;99.90;;;;;;4982944;28;20214;-48
2023/04/07 06:53:43;;;;;;;4.63;4.13;;;8.90;99.90;;;;;;4992338;28;20203;-48
2023/04/07 06:56:11;;;;;;;6.27;4.00;;;8.90;99.90;;;;;;4985507;28;20209;-48
2023/04/07 06:58:39;;;;;;;4.20;3.60;;;9.00;99.90;;;;;;4980868;28;20229;-48
2023/04/07 07:01:06;;;;;;;4.60;4.17;;;9.10;99.90;;;;;;4989729;28;20214;-48
2023/04/07 07:03:34;;;;;;;3.93;3.67;;;9.00;99.90;;;;;;4984629;28;20643;-48
2023/04/07 07:06:02;;;;;;;3.97;3.67;;;9.20;99.90;;;;;;5006539;28;20686;-48
2023/04/07 07:08:29;;;;;;;4.40;4.10;;;9.30;99.90;;;;;;4989568;28;20699;-48
2023/04/07 07:10:56;;;;;;;3.70;3.33;;;9.40;99.90;;;;;;4984571;28;20335;-48
2023/04/07 07:13:25;;;;;;;9.13;4.23;;;9.50;99.90;;;;;;4991489;28;20646;-48
2023/04/07 07:15:53;;;;;;;6.17;4.30;;;9.60;99.90;;;;;;4982247;28;21023;-49
2023/04/07 07:18:20;;;;;;;4.27;3.97;;;9.70;99.90;;;;;;4985445;28;20226;-48
2023/04/07 07:20:47;;;;;;;6.43;3.70;;;9.70;99.90;;;;;;4973516;28;20194;-48
2023/04/07 07:23:14;;;;;;;3.50;3.30;;;9.70;99.90;;;;;;4974327;28;20216;-48
2023/04/07 07:25:41;;;;;;;4.27;3.97;;;9.90;99.90;;;;;;4991599;28;20200;-49
2023/04/07 07:28:08;;;;;;;4.63;3.70;;;9.90;99.90;;;;;;4991473;28;20214;-48
2023/04/07 07:30:35;;;;;;;4.37;3.97;;;10.00;99.90;;;;;;4987126;28;20204;-48
2023/04/07 07:33:04;;;;;;;3.83;3.53;;;10.10;99.90;;;;;;4980502;28;20232;-48
2023/04/07 07:35:32;;;;;;;5.33;3.33;;;10.10;99.90;;;;;;4983156;28;20226;-49
2023/04/07 07:37:59;;;;;;;4.87;4.00;;;10.30;99.90;;;;;;4987345;28;20257;-49
2023/04/07 07:40:26;;;;;;;4.27;3.87;;;10.50;99.90;;;;;;4984417;28;20209;-49
2023/04/07 07:42:53;;;;;;;3.57;3.37;;;10.70;99.90;;;;;;4978221;28;20287;-48
2023/04/07 07:45:20;;;;;;;4.43;3.47;;;11.00;99.90;;;;;;4975978;28;20254;-48
2023/04/07 07:47:47;;;;;;;4.17;3.60;;;11.10;99.90;;;;;;4986728;28;20236;-49
2023/04/07 07:50:16;;;;;;;4.00;3.63;;;12.20;99.90;;;;;;4982434;28;20233;-49
2023/04/07 07:52:43;;;;;;;6.40;4.00;;;12.90;99.90;;;;;;4985382;28;20240;-48
2023/04/07 07:55:11;;;;;;;3.80;3.50;;;13.50;99.90;;;;;;4980306;28;20200;-48
2023/04/07 07:57:41;;;;;;;4.30;4.00;;;13.40;99.10;;;;;;4975040;28;20264;-48
2023/04/07 08:00:09;;;;;;;4.27;3.97;;;13.00;98.70;;;;;;4980447;28;20223;-49
2023/04/07 08:02:40;;;;;;;4.33;4.03;;;13.30;99.00;;;;;;4980508;28;20203;-48
2023/04/07 08:05:07;;;;;;;4.90;4.60;;;13.10;98.20;;;;;;4976577;28;20690;-49
2023/04/07 08:07:39;;;;;;;9.77;4.30;;;13.30;99.80;;;;;;4970900;28;20702;-48
2023/04/07 08:10:07;;;;;;;4.80;4.40;;;13.80;99.10;;;;;;4974715;28;20226;-49
2023/04/07 08:12:35;;;;;;;4.77;4.33;;;13.80;96.70;;;;;;4976196;28;20262;-49
2023/04/07 08:15:02;;;;;;;4.23;3.93;;;13.50;97.80;;;;;;4983940;28;20682;-49
2023/04/07 08:17:29;;;;;;;4.40;3.97;;;13.40;98.00;;;;;;4990783;28;20334;-49
2023/04/07 08:19:56;;;;;;;5.37;4.90;;;13.00;97.40;;;;;;4986502;28;20239;-49
2023/04/07 08:22:23;;;;;;;4.87;4.47;;;12.80;98.80;;;;;;4988274;28;20196;-48
2023/04/07 08:24:52;;;;;;;4.83;4.20;;;12.70;99.30;;;;;;4991733;28;20293;-49
2023/04/07 08:27:20;;;;;;;4.83;4.43;;;13.10;98.50;;;;;;4990300;28;20206;-48
2023/04/07 08:29:48;;;;;;;3.73;3.43;;;13.10;97.70;;;;;;4991180;28;20230;-48
2023/04/07 08:32:16;;;;;;;4.63;4.23;;;13.60;97.80;;;;;;4990304;28;20214;-49
2023/04/07 08:34:43;;;;;;;4.07;3.80;;;13.80;97.30;;;;;;4991674;28;20300;-48
2023/04/07 08:37:10;;;;;;;4.67;4.27;;;14.50;96.60;;;;;;4984586;28;20281;-48
2023/04/07 08:39:37;;;;;;;4.50;4.20;;;15.40;99.10;;;;;;4986140;28;20219;-48
2023/04/07 08:42:07;;;;;;;4.77;4.47;;;15.80;96.40;;;;;;4990895;28;20204;-48
2023/04/07 08:44:36;;;;;;;5.87;4.60;;;16.10;94.70;;;;;;4986451;28;20255;-48
2023/04/07 08:47:07;;;;;;;4.80;4.40;;;16.60;94.00;;;;;;4993184;28;20208;-48
2023/04/07 08:49:36;;;;;;;5.20;4.30;;;17.40;92.90;;;;;;4989436;28;20243;-49
2023/04/07 08:52:09;;;;;;;6.40;5.80;;;18.30;94.90;;;;;;4973297;28;20201;-49
2023/04/07 08:54:36;;;;;;;5.27;4.87;;;19.00;95.00;;;;;;5000516;28;20200;-48
2023/04/07 08:57:05;;;;;;;5.10;4.80;;;18.90;87.90;;;;;;4990887;28;20207;-49
2023/04/07 08:59:33;;;;;;;8.30;5.17;;;18.80;90.30;;;;;;4977626;28;20227;-49
2023/04/07 09:02:01;;;;;;;5.83;5.43;;;17.90;89.50;;;;;;4988304;28;20196;-49
2023/04/07 09:04:28;;;;;;;5.83;5.43;;;17.50;90.00;;;;;;4978938;28;20576;-49
2023/04/07 09:06:55;;;;;;;5.03;4.73;;;16.90;90.80;;;;;;4972397;28;20208;-48
2023/04/07 09:09:23;;;;;;;6.03;5.53;;;16.60;92.50;;;;;;4981517;28;20221;-49
2023/04/07 09:11:50;;;;;;;5.03;4.73;;;15.90;92.60;;;;;;4985951;28;20215;-49
2023/04/07 09:14:19;;;;;;;6.00;5.40;;;15.60;90.40;;;;;;4988630;28;20319;-49
2023/04/07 09:16:47;;;;;;;5.83;5.33;;;15.90;93.20;;;;;;4980407;28;20195;-49
2023/04/07 09:19:14;;;;;;;5.47;5.13;;;16.20;92.30;;;;;;4977498;28;20372;-49
2023/04/07 09:21:51;;;;;;;6.60;5.87;;;16.00;93.30;;;;;;4971069;28;20858;-49
2023/04/07 09:24:22;;;;;;;5.67;5.13;;;16.00;93.10;;;;;;4994041;28;20267;-48
2023/04/07 09:26:49;;;;;;;5.63;5.20;;;15.40;92.00;;;;;;4971731;28;20310;-48
2023/04/07 09:29:20;;;;;;;5.00;4.70;;;15.10;93.10;;;;;;4987001;28;20266;-48
2023/04/07 09:31:50;;;;;;;4.93;4.53;;;15.00;92.90;;;;;;4980488;28;20582;-48
2023/04/07 09:34:29;;;;;;;5.17;4.87;;;14.80;91.30;;;;;;4975469;28;20199;-48
2023/04/07 09:36:56;;;;;;;5.80;5.27;;;14.50;90.70;;;;;;4985067;28;20719;-48
2023/04/07 09:39:27;;;;;;;5.23;4.20;;;14.00;91.50;;;;;;5002333;28;20227;-48
2023/04/07 09:41:54;;;;;;;6.27;5.67;;;13.90;94.10;;;;;;5010202;28;20200;-48
2023/04/07 09:44:24;;;;;;;4.37;4.07;;;13.90;94.30;;;;;;4991271;28;20223;-48
2023/04/07 09:46:52;;;;;;;4.37;4.10;;;14.20;95.50;;;;;;4996349;28;20199;-49
2023/04/07 09:49:20;;;;;;;5.00;4.53;;;14.30;93.70;;;;;;4983941;28;20230;-48
2023/04/07 09:51:55;;;;;;;5.33;5.00;;;14.50;94.60;;;;;;4988118;28;20202;-49
2023/04/07 09:54:41;;;;;;;5.50;5.00;;;14.60;93.00;;;;;;5007333;28;20301;-49
2023/04/07 09:57:10;;;;;;;5.40;4.77;;;14.80;93.50;;;;;;5004727;28;20678;-49
2023/04/07 09:59:41;;;;;;;4.40;4.00;;;14.90;94.90;;;;;;4984541;28;20271;-49
2023/04/07 10:02:09;;;;;;;4.17;3.80;;;14.70;93.30;;;;;;4981424;28;20287;-49
2023/04/07 10:04:37;;;;;;;3.73;3.43;;;14.50;95.20;;;;;;5004917;28;20223;-48
2023/04/07 10:07:05;;;;;;;4.10;3.80;;;14.60;94.70;;;;;;5008617;28;20217;-48
2023/04/07 10:09:32;;;;;;;4.20;3.90;;;14.50;94.50;;;;;;5001120;28;20310;-48
2023/04/07 10:12:00;;;;;;;5.20;4.63;;;14.20;94.10;;;;;;4995751;28;20273;-48
2023/04/07 10:14:30;;;;;;;3.07;2.87;;;14.20;95.30;;;;;;4993517;28;20199;-48
2023/04/07 10:17:00;;;;;;;4.30;3.60;;;13.90;94.30;;;;;;4991199;28;20267;-48
2023/04/07 10:19:31;;;;;;;3.50;3.30;;;13.60;94.30;;;;;;4992782;28;20227;-48
2023/04/07 10:21:59;;;;;;;4.55;4.25;;;13.70;94.10;;;;;;4982000;28;20458;-49
2023/04/07 10:24:45;;;;;;;5.90;5.50;;;13.70;94.00;;;;;;4997278;28;20223;-49
2023/04/07 10:27:17;;;;;;;3.23;3.03;;;14.20;93.50;;;;;;4987800;28;20241;-49
2023/04/07 10:29:48;;;;;;;4.47;3.97;;;14.70;93.60;;;;;;4992068;28;20227;-49
2023/04/07 10:32:17;;;;;;;3.73;3.50;;;15.20;93.60;;;;;;4974228;28;20285;-48
2023/04/07 10:35:00;;;;;;;5.00;3.70;;;15.50;92.10;;;;;;4976797;28;20214;-49
2023/04/07 10:37:27;;;;;;;3.67;3.33;;;15.20;92.10;;;;;;4979377;28;20208;-48
2023/04/07 10:40:27;;;;;;;3.20;3.00;;;15.10;92.80;;;;;;4988589;28;20220;-49
2023/04/07 10:42:55;;;;;;;4.13;3.27;;;15.20;91.60;;;;;;4980657;28;20295;-49
2023/04/07 10:45:58;;;;;;;5.77;4.03;;;15.20;91.80;;;;;;4989438;28;20227;-49
2023/04/07 10:48:32;;;;;;;6.90;3.40;;;15.20;91.50;;;;;;4986760;28;20223;-48
2023/04/07 10:51:17;;;;;;;4.30;3.90;;;15.10;92.30;;;;;;4993799;28;20206;-48
2023/04/07 10:54:19;;;;;;;4.47;4.07;;;15.00;92.40;;;;;;4993930;28;20451;-49
2023/04/07 10:57:14;;;;;;;3.13;2.83;;;14.70;90.50;;;;;;4984475;28;20221;-49
2023/04/07 10:59:57;;;;;;;3.93;3.50;;;14.40;91.00;;;;;;4960723;28;20216;-48
2023/04/07 11:02:34;;;;;;;4.23;2.60;;;14.30;92.20;;;;;;4983935;28;20208;-49
2023/04/07 11:05:03;;;;;;;3.27;2.90;;;14.50;93.60;;;;;;4987785;28;20251;-48
2023/04/07 11:07:48;;;;;;;2.83;2.63;;;14.70;92.30;;;;;;4986887;28;20768;-49
2023/04/07 11:10:17;;;;;;;3.65;3.38;;;14.80;93.20;;;;;;4989057;28;20470;-49
2023/04/07 11:12:57;;;;;;;5.10;2.47;;;14.70;92.90;;;;;;5012468;28;20215;-48
2023/04/07 11:15:24;;;;;;;2.40;2.30;;;14.90;92.30;;;;;;4995577;28;20235;-48
2023/04/07 11:18:07;;;;;;;4.10;2.47;;;14.70;92.00;;;;;;5002769;28;20204;-50
2023/04/07 11:20:46;;;;;;;3.33;2.40;;;14.90;93.80;;;;;;5003353;28;20206;-49
2023/04/07 11:23:14;;;;;;;3.13;2.77;;;15.30;93.30;;;;;;4985708;28;20252;-49
2023/04/07 11:25:44;;;;;;;2.00;1.87;;;15.30;91.30;;;;;;4994445;28;20230;-49
2023/04/07 11:28:12;;;;;;;2.93;2.63;;;15.20;93.70;;;;;;4988653;28;20302;-48
2023/04/07 11:30:44;;;;;;;6.07;3.10;;;15.40;92.80;;;;;;4976415;28;20288;-48
2023/04/07 11:33:15;;;;;;;3.30;3.10;;;15.60;94.00;;;;;;4973483;28;20215;-49
2023/04/07 11:35:54;;;;;;;3.27;2.77;;;15.70;93.00;;;;;;4974073;28;20207;-48
2023/04/07 11:38:24;;;;;;;2.40;2.30;;;15.40;91.60;;;;;;4984644;28;20223;-48
2023/04/07 11:40:52;;;;;;;3.40;3.10;;;15.10;93.00;;;;;;4985543;28;20203;-49
2023/04/07 11:43:20;;;;;;;3.43;2.63;;;14.60;92.20;;;;;;4991700;28;20254;-48
2023/04/07 11:46:05;;;;;;;3.50;3.23;;;14.70;94.30;;;;;;4992428;28;20627;-48
2023/04/07 11:48:33;;;;;;;2.83;2.40;;;14.70;92.80;;;;;;4989161;28;20631;-48
2023/04/07 11:51:03;;;;;;;3.50;3.20;;;14.70;93.30;;;;;;4976842;28;20259;-48
2023/04/07 11:53:33;;;;;;;2.60;2.40;;;15.10;94.00;;;;;;4985550;28;20203;-49
2023/04/07 11:56:06;;;;;;;2.50;2.40;;;15.40;93.40;;;;;;4987095;28;20662;-49
2023/04/07 11:58:33;;;;;;;1.70;1.70;;;15.20;93.10;;;;;;4989486;28;20298;-48
2023/04/07 12:01:05;;;;;;;2.53;2.13;;;15.30;94.30;;;;;;4990916;28;20199;-49
2023/04/07 12:03:32;;;;;;;4.83;2.40;;;15.10;92.70;;;;;;4987164;28;20200;-48
2023/04/07 12:06:01;;;;;;;2.83;2.63;;;15.00;95.20;;;;;;4983169;28;20310;-49
2023/04/07 12:08:39;;;;;;;2.77;2.47;;;15.10;93.90;;;;;;4978237;28;20751;-48
2023/04/07 12:11:07;;;;;;;3.87;2.97;;;14.70;93.10;;;;;;4988363;28;20264;-48
2023/04/07 12:13:34;;;;;;;10.97;4.53;;;14.70;92.90;;;;;;4989351;28;20199;-49
2023/04/07 12:16:01;;;;;;;2.50;2.30;;;14.80;93.70;;;;;;4996819;28;20262;-48
2023/04/07 12:18:29;;;;;;;3.37;3.03;;;14.70;94.50;;;;;;4990274;28;20224;-48
2023/04/07 12:20:57;;;;;;;2.63;2.43;;;14.60;93.70;;;;;;4986360;28;20627;-48
2023/04/07 12:23:26;;;;;;;4.07;3.67;;;14.70;95.80;;;;;;4996021;28;20224;-48
2023/04/07 12:25:53;;;;;;;2.77;2.63;;;14.80;95.50;;;;;;4991638;28;20230;-49
2023/04/07 12:28:20;;;;;;;2.87;2.03;;;15.00;96.00;;;;;;4973561;28;20689;-48
2023/04/07 12:30:47;;;;;;;5.13;2.43;;;14.80;94.20;;;;;;4988618;28;20273;-48
2023/04/07 12:33:15;;;;;;;2.30;2.20;;;14.20;94.90;;;;;;4994430;28;20206;-48
2023/04/07 12:35:42;;;;;;;3.57;2.67;;;14.10;95.40;;;;;;4999200;28;20191;-48
2023/04/07 12:38:09;;;;;;;2.40;2.30;;;14.30;96.10;;;;;;4998973;28;20226;-48
2023/04/07 12:40:37;;;;;;;3.13;2.93;;;14.50;96.50;;;;;;5010101;28;20668;-48
2023/04/07 12:43:04;;;;;;;3.27;3.07;;;14.50;96.50;;;;;;5005939;28;20201;-48
2023/04/07 12:45:32;;;;;;;4.07;2.73;;;14.70;96.70;;;;;;4996653;28;20680;-48
2023/04/07 12:47:59;;;;;;;2.70;2.00;;;14.70;96.30;;;;;;4980290;28;20209;-48
2023/04/07 12:50:27;;;;;;;2.77;2.60;;;14.70;95.40;;;;;;4980212;28;20263;-48
2023/04/07 12:52:54;;;;;;;3.27;3.07;;;14.50;96.40;;;;;;5003359;28;20206;-48
2023/04/07 12:55:21;;;;;;;3.43;2.63;;;14.50;97.10;;;;;;5011543;28;20632;-48
2023/04/07 12:57:50;;;;;;;3.63;2.43;;;14.10;95.00;;;;;;5011076;28;20205;-48
2023/04/07 13:00:17;;;;;;;2.60;2.50;;;14.10;96.10;;;;;;4991959;28;20203;-48
2023/04/07 13:02:44;;;;;;;2.43;2.23;;;14.10;96.60;;;;;;4991574;28;20203;-48